Terminal Aerodrome Forecast
Issued by NWS San Angelo, TX

Home | Current Version | Previous Version | Text Only | Print | Product List | Glossary On
Versions: 1 2 3 4 5 6 7 8 9 10 11 12 13 14 15 16 17 18 19 20 21 22 23
000
FTUS44 KSJT 231124
TAFSJT
TAF
KSJT 231124Z 2312/2412 05005KT 1SM BR VCSH BKN003
      TEMPO 2312/2315 1/2SM FG
     FM231700 VRB03KT 3SM BR OVC005
     FM232000 12005KT 6SM BR OVC007
     FM240300 16006KT 4SM BR OVC005=

USA.gov is the U.S. government's official web portal to all federal, state and local government web resources and services.